sensor_id;sensor_type;location;lat;lon;timestamp;temperature;humidity
33139;DHT22;19501;50.948;5.316;2023-02-15T00:01:04;3.00;99.90
33139;DHT22;19501;50.948;5.316;2023-02-15T00:03:30;2.90;99.90
33139;DHT22;19501;50.948;5.316;2023-02-15T00:05:59;2.60;99.90
33139;DHT22;19501;50.948;5.316;2023-02-15T00:08:24;2.60;99.90
33139;DHT22;19501;50.948;5.316;2023-02-15T00:10:50;2.60;99.90
33139;DHT22;19501;50.948;5.316;2023-02-15T00:13:15;2.50;99.90
33139;DHT22;19501;50.948;5.316;2023-02-15T00:15:41;2.50;99.90
33139;DHT22;19501;50.948;5.316;2023-02-15T00:18:06;2.50;99.90
33139;DHT22;19501;50.948;5.316;2023-02-15T00:20:32;2.30;99.90
33139;DHT22;19501;50.948;5.316;2023-02-15T00:22:58;2.20;99.90
33139;DHT22;19501;50.948;5.316;2023-02-15T00:25:23;2.30;99.90
33139;DHT22;19501;50.948;5.316;2023-02-15T00:27:51;2.40;99.90
33139;DHT22;19501;50.948;5.316;2023-02-15T00:30:17;2.40;99.90
33139;DHT22;19501;50.948;5.316;2023-02-15T00:32:42;2.50;99.90
33139;DHT22;19501;50.948;5.316;2023-02-15T00:35:08;2.50;99.90
33139;DHT22;19501;50.948;5.316;2023-02-15T00:37:34;2.40;99.90
33139;DHT22;19501;50.948;5.316;2023-02-15T00:40:00;2.30;99.90
33139;DHT22;19501;50.948;5.316;2023-02-15T00:42:25;2.10;99.90
33139;DHT22;19501;50.948;5.316;2023-02-15T00:44:51;2.00;99.90
33139;DHT22;19501;50.948;5.316;2023-02-15T00:47:16;2.00;99.90
33139;DHT22;19501;50.948;5.316;2023-02-15T00:49:42;2.20;99.90
33139;DHT22;19501;50.948;5.316;2023-02-15T00:52:07;2.30;99.90
33139;DHT22;19501;50.948;5.316;2023-02-15T00:54:36;2.40;99.90
33139;DHT22;19501;50.948;5.316;2023-02-15T00:57:03;2.40;99.90
33139;DHT22;19501;50.948;5.316;2023-02-15T00:59:29;2.40;99.90
33139;DHT22;19501;50.948;5.316;2023-02-15T01:01:54;2.40;99.90
33139;DHT22;19501;50.948;5.316;2023-02-15T01:04:20;2.30;99.90
33139;DHT22;19501;50.948;5.316;2023-02-15T01:06:45;2.30;99.90
33139;DHT22;19501;50.948;5.316;2023-02-15T01:09:11;2.30;99.90
33139;DHT22;19501;50.948;5.316;2023-02-15T01:11:38;2.30;99.90
33139;DHT22;19501;50.948;5.316;2023-02-15T01:14:04;2.30;99.90
33139;DHT22;19501;50.948;5.316;2023-02-15T01:16:30;2.40;99.90
33139;DHT22;19501;50.948;5.316;2023-02-15T01:18:56;2.40;99.90
33139;DHT22;19501;50.948;5.316;2023-02-15T01:21:22;2.30;99.90
33139;DHT22;19501;50.948;5.316;2023-02-15T01:23:48;2.30;99.90
33139;DHT22;19501;50.948;5.316;2023-02-15T01:26:14;2.30;99.90
33139;DHT22;19501;50.948;5.316;2023-02-15T01:28:40;2.30;99.90
33139;DHT22;19501;50.948;5.316;2023-02-15T01:31:09;2.20;99.90
33139;DHT22;19501;50.948;5.316;2023-02-15T01:33:38;2.10;99.90
33139;DHT22;19501;50.948;5.316;2023-02-15T01:36:04;2.10;99.90
33139;DHT22;19501;50.948;5.316;2023-02-15T01:38:30;2.10;99.90
33139;DHT22;19501;50.948;5.316;2023-02-15T01:40:55;2.00;99.90
33139;DHT22;19501;50.948;5.316;2023-02-15T01:43:41;2.10;99.90
33139;DHT22;19501;50.948;5.316;2023-02-15T01:46:06;2.10;99.90
33139;DHT22;19501;50.948;5.316;2023-02-15T01:48:33;2.00;99.90
33139;DHT22;19501;50.948;5.316;2023-02-15T01:51:01;1.90;99.90
33139;DHT22;19501;50.948;5.316;2023-02-15T01:53:29;1.90;99.90
33139;DHT22;19501;50.948;5.316;2023-02-15T01:56:01;1.90;99.90
33139;DHT22;19501;50.948;5.316;2023-02-15T01:58:27;1.80;99.90
33139;DHT22;19501;50.948;5.316;2023-02-15T02:00:54;2.00;99.90
33139;DHT22;19501;50.948;5.316;2023-02-15T02:03:36;2.00;99.90
33139;DHT22;19501;50.948;5.316;2023-02-15T02:06:04;2.00;99.90
33139;DHT22;19501;50.948;5.316;2023-02-15T02:08:29;2.10;99.90
33139;DHT22;19501;50.948;5.316;2023-02-15T02:10:55;2.00;99.90
33139;DHT22;19501;50.948;5.316;2023-02-15T02:13:20;1.90;99.90
33139;DHT22;19501;50.948;5.316;2023-02-15T02:15:58;1.70;99.90
33139;DHT22;19501;50.948;5.316;2023-02-15T02:23:47;1.60;99.90
33139;DHT22;19501;50.948;5.316;2023-02-15T02:29:22;1.70;99.90
33139;DHT22;19501;50.948;5.316;2023-02-15T02:34:29;1.80;99.90
33139;DHT22;19501;50.948;5.316;2023-02-15T02:37:00;1.80;99.90
33139;DHT22;19501;50.948;5.316;2023-02-15T02:44:43;1.50;99.90
33139;DHT22;19501;50.948;5.316;2023-02-15T02:50:05;1.40;99.90
33139;DHT22;19501;50.948;5.316;2023-02-15T02:55:29;1.50;99.90
33139;DHT22;19501;50.948;5.316;2023-02-15T02:58:19;1.50;99.90
33139;DHT22;19501;50.948;5.316;2023-02-15T03:00:46;1.60;99.90
33139;DHT22;19501;50.948;5.316;2023-02-15T03:03:15;1.70;99.90
33139;DHT22;19501;50.948;5.316;2023-02-15T03:05:44;1.60;99.90
33139;DHT22;19501;50.948;5.316;2023-02-15T03:08:12;1.50;99.90
33139;DHT22;19501;50.948;5.316;2023-02-15T03:10:46;1.60;99.90
33139;DHT22;19501;50.948;5.316;2023-02-15T03:13:12;1.60;99.90
33139;DHT22;19501;50.948;5.316;2023-02-15T03:15:38;1.60;99.90
33139;DHT22;19501;50.948;5.316;2023-02-15T03:18:24;1.50;99.90
33139;DHT22;19501;50.948;5.316;2023-02-15T03:20:51;1.40;99.90
33139;DHT22;19501;50.948;5.316;2023-02-15T03:23:21;1.20;99.90
33139;DHT22;19501;50.948;5.316;2023-02-15T03:26:01;1.00;99.90
33139;DHT22;19501;50.948;5.316;2023-02-15T03:28:29;1.00;99.90
33139;DHT22;19501;50.948;5.316;2023-02-15T03:30:58;1.10;99.90
33139;DHT22;19501;50.948;5.316;2023-02-15T03:33:25;1.30;99.90
33139;DHT22;19501;50.948;5.316;2023-02-15T03:38:19;1.40;99.90
33139;DHT22;19501;50.948;5.316;2023-02-15T03:40:45;1.40;99.90
33139;DHT22;19501;50.948;5.316;2023-02-15T03:43:48;1.40;99.90
33139;DHT22;19501;50.948;5.316;2023-02-15T03:46:17;1.40;99.90
33139;DHT22;19501;50.948;5.316;2023-02-15T03:48:50;1.40;99.90
33139;DHT22;19501;50.948;5.316;2023-02-15T03:51:18;1.50;99.90
33139;DHT22;19501;50.948;5.316;2023-02-15T03:54:01;1.40;99.90
33139;DHT22;19501;50.948;5.316;2023-02-15T03:56:28;1.30;99.90
33139;DHT22;19501;50.948;5.316;2023-02-15T03:58:53;1.30;99.90
33139;DHT22;19501;50.948;5.316;2023-02-15T04:01:45;1.30;99.90
33139;DHT22;19501;50.948;5.316;2023-02-15T04:06:53;1.20;99.90
33139;DHT22;19501;50.948;5.316;2023-02-15T04:09:18;1.20;99.90
33139;DHT22;19501;50.948;5.316;2023-02-15T04:12:02;1.00;99.90
33139;DHT22;19501;50.948;5.316;2023-02-15T04:14:28;1.00;99.90
33139;DHT22;19501;50.948;5.316;2023-02-15T04:17:12;1.00;99.90
33139;DHT22;19501;50.948;5.316;2023-02-15T04:19:37;1.00;99.90
33139;DHT22;19501;50.948;5.316;2023-02-15T04:22:21;0.90;99.90
33139;DHT22;19501;50.948;5.316;2023-02-15T04:25:06;0.90;99.90
33139;DHT22;19501;50.948;5.316;2023-02-15T04:27:35;0.70;99.90
33139;DHT22;19501;50.948;5.316;2023-02-15T04:30:00;0.70;99.90
33139;DHT22;19501;50.948;5.316;2023-02-15T04:32:26;0.70;99.90
33139;DHT22;19501;50.948;5.316;2023-02-15T04:34:52;0.70;99.90
33139;DHT22;19501;50.948;5.316;2023-02-15T04:37:18;0.80;99.90
33139;DHT22;19501;50.948;5.316;2023-02-15T04:39:43;0.70;99.90
33139;DHT22;19501;50.948;5.316;2023-02-15T04:42:09;0.70;99.90
33139;DHT22;19501;50.948;5.316;2023-02-15T04:44:37;0.70;99.90
33139;DHT22;19501;50.948;5.316;2023-02-15T04:47:02;0.80;99.90
33139;DHT22;19501;50.948;5.316;2023-02-15T04:49:28;0.80;99.90
33139;DHT22;19501;50.948;5.316;2023-02-15T04:51:53;0.90;99.90
33139;DHT22;19501;50.948;5.316;2023-02-15T04:54:19;0.90;99.90
33139;DHT22;19501;50.948;5.316;2023-02-15T04:56:44;0.80;99.90
33139;DHT22;19501;50.948;5.316;2023-02-15T04:59:10;0.70;99.90
33139;DHT22;19501;50.948;5.316;2023-02-15T05:01:36;0.70;99.90
33139;DHT22;19501;50.948;5.316;2023-02-15T05:04:02;0.70;99.90
33139;DHT22;19501;50.948;5.316;2023-02-15T05:06:28;0.70;99.90
33139;DHT22;19501;50.948;5.316;2023-02-15T05:08:53;0.70;99.90
33139;DHT22;19501;50.948;5.316;2023-02-15T05:11:19;0.80;99.90
33139;DHT22;19501;50.948;5.316;2023-02-15T05:13:44;0.80;99.90
33139;DHT22;19501;50.948;5.316;2023-02-15T05:16:10;0.80;99.90
33139;DHT22;19501;50.948;5.316;2023-02-15T05:18:35;0.70;99.90
33139;DHT22;19501;50.948;5.316;2023-02-15T05:21:01;0.70;99.90
33139;DHT22;19501;50.948;5.316;2023-02-15T05:23:26;0.70;99.90
33139;DHT22;19501;50.948;5.316;2023-02-15T05:25:52;0.60;99.90
33139;DHT22;19501;50.948;5.316;2023-02-15T05:28:36;0.60;99.90
33139;DHT22;19501;50.948;5.316;2023-02-15T05:33:28;0.70;99.90
33139;DHT22;19501;50.948;5.316;2023-02-15T05:35:53;0.80;99.90
33139;DHT22;19501;50.948;5.316;2023-02-15T05:38:19;0.80;99.90
33139;DHT22;19501;50.948;5.316;2023-02-15T05:40:47;0.80;99.90
33139;DHT22;19501;50.948;5.316;2023-02-15T05:43:12;0.90;99.90
33139;DHT22;19501;50.948;5.316;2023-02-15T05:45:38;0.90;99.90
33139;DHT22;19501;50.948;5.316;2023-02-15T05:48:03;0.80;99.90
33139;DHT22;19501;50.948;5.316;2023-02-15T05:50:29;0.80;99.90
33139;DHT22;19501;50.948;5.316;2023-02-15T05:52:54;0.80;99.90
33139;DHT22;19501;50.948;5.316;2023-02-15T05:55:20;0.90;99.90
33139;DHT22;19501;50.948;5.316;2023-02-15T05:57:46;0.80;99.90
33139;DHT22;19501;50.948;5.316;2023-02-15T06:00:11;0.70;99.90
33139;DHT22;19501;50.948;5.316;2023-02-15T06:02:37;0.60;99.90
33139;DHT22;19501;50.948;5.316;2023-02-15T06:05:04;0.50;99.90
33139;DHT22;19501;50.948;5.316;2023-02-15T06:07:29;0.60;99.90
33139;DHT22;19501;50.948;5.316;2023-02-15T06:09:55;0.60;99.90
33139;DHT22;19501;50.948;5.316;2023-02-15T06:12:20;0.50;99.90
33139;DHT22;19501;50.948;5.316;2023-02-15T06:14:46;0.50;99.90
33139;DHT22;19501;50.948;5.316;2023-02-15T06:17:12;0.50;99.90
33139;DHT22;19501;50.948;5.316;2023-02-15T06:19:37;0.60;99.90
33139;DHT22;19501;50.948;5.316;2023-02-15T06:22:03;0.70;99.90
33139;DHT22;19501;50.948;5.316;2023-02-15T06:24:28;0.70;99.90
33139;DHT22;19501;50.948;5.316;2023-02-15T06:26:54;0.70;99.90
33139;DHT22;19501;50.948;5.316;2023-02-15T06:29:19;0.60;99.90
33139;DHT22;19501;50.948;5.316;2023-02-15T06:31:45;0.50;99.90
33139;DHT22;19501;50.948;5.316;2023-02-15T06:34:10;0.50;99.90
33139;DHT22;19501;50.948;5.316;2023-02-15T06:36:36;0.50;99.90
33139;DHT22;19501;50.948;5.316;2023-02-15T06:39:02;0.60;99.90
33139;DHT22;19501;50.948;5.316;2023-02-15T06:41:28;0.60;99.90
33139;DHT22;19501;50.948;5.316;2023-02-15T06:43:53;0.70;99.90
33139;DHT22;19501;50.948;5.316;2023-02-15T06:46:21;0.80;99.90
33139;DHT22;19501;50.948;5.316;2023-02-15T06:48:47;0.80;99.90
33139;DHT22;19501;50.948;5.316;2023-02-15T06:51:12;0.80;99.90
33139;DHT22;19501;50.948;5.316;2023-02-15T06:53:38;0.70;99.90
33139;DHT22;19501;50.948;5.316;2023-02-15T06:56:04;0.60;99.90
33139;DHT22;19501;50.948;5.316;2023-02-15T06:58:38;0.60;99.90
33139;DHT22;19501;50.948;5.316;2023-02-15T07:01:04;0.60;99.90
33139;DHT22;19501;50.948;5.316;2023-02-15T07:03:29;0.60;99.90
33139;DHT22;19501;50.948;5.316;2023-02-15T07:05:56;0.60;99.90
33139;DHT22;19501;50.948;5.316;2023-02-15T07:08:21;0.60;99.90
33139;DHT22;19501;50.948;5.316;2023-02-15T07:10:48;0.70;99.90
33139;DHT22;19501;50.948;5.316;2023-02-15T07:13:13;0.80;99.90
33139;DHT22;19501;50.948;5.316;2023-02-15T07:15:39;0.90;99.90
33139;DHT22;19501;50.948;5.316;2023-02-15T07:18:04;1.00;99.90
33139;DHT22;19501;50.948;5.316;2023-02-15T07:20:30;1.00;99.90
33139;DHT22;19501;50.948;5.316;2023-02-15T07:22:56;1.10;99.90
33139;DHT22;19501;50.948;5.316;2023-02-15T07:25:21;1.10;99.90
33139;DHT22;19501;50.948;5.316;2023-02-15T07:27:47;1.20;99.90
33139;DHT22;19501;50.948;5.316;2023-02-15T07:30:16;1.20;99.90
33139;DHT22;19501;50.948;5.316;2023-02-15T07:32:41;1.30;99.90
33139;DHT22;19501;50.948;5.316;2023-02-15T07:35:25;1.40;99.90
33139;DHT22;19501;50.948;5.316;2023-02-15T07:37:51;1.40;99.90
33139;DHT22;19501;50.948;5.316;2023-02-15T07:40:18;1.40;99.90
33139;DHT22;19501;50.948;5.316;2023-02-15T07:42:44;1.50;99.90
33139;DHT22;19501;50.948;5.316;2023-02-15T07:45:09;1.60;99.90
33139;DHT22;19501;50.948;5.316;2023-02-15T07:47:35;1.70;99.90
33139;DHT22;19501;50.948;5.316;2023-02-15T07:50:01;1.80;99.90
33139;DHT22;19501;50.948;5.316;2023-02-15T07:52:27;1.90;99.90
33139;DHT22;19501;50.948;5.316;2023-02-15T07:54:52;2.00;99.90
33139;DHT22;19501;50.948;5.316;2023-02-15T07:57:18;2.10;99.90
33139;DHT22;19501;50.948;5.316;2023-02-15T07:59:43;2.30;99.90
33139;DHT22;19501;50.948;5.316;2023-02-15T08:02:10;2.50;99.90
33139;DHT22;19501;50.948;5.316;2023-02-15T08:04:35;2.60;99.90
33139;DHT22;19501;50.948;5.316;2023-02-15T08:07:01;2.70;99.90
33139;DHT22;19501;50.948;5.316;2023-02-15T08:09:26;2.70;99.90
33139;DHT22;19501;50.948;5.316;2023-02-15T08:11:52;2.80;99.90
33139;DHT22;19501;50.948;5.316;2023-02-15T08:14:18;2.80;99.90
33139;DHT22;19501;50.948;5.316;2023-02-15T08:16:45;3.00;99.90
33139;DHT22;19501;50.948;5.316;2023-02-15T08:21:40;3.20;99.90
33139;DHT22;19501;50.948;5.316;2023-02-15T08:24:09;3.30;99.90
33139;DHT22;19501;50.948;5.316;2023-02-15T08:26:35;3.40;99.90
33139;DHT22;19501;50.948;5.316;2023-02-15T08:29:01;3.50;99.90
33139;DHT22;19501;50.948;5.316;2023-02-15T08:31:27;3.60;99.90
33139;DHT22;19501;50.948;5.316;2023-02-15T08:33:53;3.60;99.90
33139;DHT22;19501;50.948;5.316;2023-02-15T08:36:20;3.80;99.90
33139;DHT22;19501;50.948;5.316;2023-02-15T08:38:46;3.90;99.90
33139;DHT22;19501;50.948;5.316;2023-02-15T08:41:15;4.00;99.90
33139;DHT22;19501;50.948;5.316;2023-02-15T08:43:41;4.00;99.90
33139;DHT22;19501;50.948;5.316;2023-02-15T08:46:07;4.20;99.90
33139;DHT22;19501;50.948;5.316;2023-02-15T08:48:32;4.30;99.90
33139;DHT22;19501;50.948;5.316;2023-02-15T08:50:58;4.30;99.90
33139;DHT22;19501;50.948;5.316;2023-02-15T08:53:23;4.50;99.90
33139;DHT22;19501;50.948;5.316;2023-02-15T08:55:58;4.60;99.90
33139;DHT22;19501;50.948;5.316;2023-02-15T08:58:27;4.70;99.90
33139;DHT22;19501;50.948;5.316;2023-02-15T09:00:53;4.80;99.90
33139;DHT22;19501;50.948;5.316;2023-02-15T09:03:18;4.90;99.90
33139;DHT22;19501;50.948;5.316;2023-02-15T09:05:44;4.90;99.90
33139;DHT22;19501;50.948;5.316;2023-02-15T09:08:09;5.00;99.90
33139;DHT22;19501;50.948;5.316;2023-02-15T09:10:35;5.10;99.90
33139;DHT22;19501;50.948;5.316;2023-02-15T09:13:00;5.10;99.90
33139;DHT22;19501;50.948;5.316;2023-02-15T09:15:26;5.20;99.90
33139;DHT22;19501;50.948;5.316;2023-02-15T09:17:51;5.40;99.90
33139;DHT22;19501;50.948;5.316;2023-02-15T09:20:18;5.50;99.90
33139;DHT22;19501;50.948;5.316;2023-02-15T09:22:43;5.60;99.90
33139;DHT22;19501;50.948;5.316;2023-02-15T09:25:09;5.70;99.90
33139;DHT22;19501;50.948;5.316;2023-02-15T09:27:34;5.80;99.90
33139;DHT22;19501;50.948;5.316;2023-02-15T09:30:02;5.90;99.90
33139;DHT22;19501;50.948;5.316;2023-02-15T09:32:28;6.00;99.90
33139;DHT22;19501;50.948;5.316;2023-02-15T09:34:53;6.10;99.90
33139;DHT22;19501;50.948;5.316;2023-02-15T09:37:18;6.20;99.90
33139;DHT22;19501;50.948;5.316;2023-02-15T09:39:44;6.40;99.90
33139;DHT22;19501;50.948;5.316;2023-02-15T09:43:13;6.60;99.90
33139;DHT22;19501;50.948;5.316;2023-02-15T09:45:30;6.70;99.90
33139;DHT22;19501;50.948;5.316;2023-02-15T09:48:21;6.90;99.90
33139;DHT22;19501;50.948;5.316;2023-02-15T09:53:55;7.40;99.90
33139;DHT22;19501;50.948;5.316;2023-02-15T10:03:52;8.00;99.90
33139;DHT22;19501;50.948;5.316;2023-02-15T10:09:02;8.40;99.90
33139;DHT22;19501;50.948;5.316;2023-02-15T10:27:43;9.30;99.90
33139;DHT22;19501;50.948;5.316;2023-02-15T10:30:10;9.50;99.90
33139;DHT22;19501;50.948;5.316;2023-02-15T10:32:44;9.50;99.90
33139;DHT22;19501;50.948;5.316;2023-02-15T10:37:49;9.70;99.90
33139;DHT22;19501;50.948;5.316;2023-02-15T10:45:31;10.00;99.90
33139;DHT22;19501;50.948;5.316;2023-02-15T10:50:49;10.20;99.90
33139;DHT22;19501;50.948;5.316;2023-02-15T11:01:15;10.60;99.90
33139;DHT22;19501;50.948;5.316;2023-02-15T11:06:14;10.90;99.90
33139;DHT22;19501;50.948;5.316;2023-02-15T11:09:24;10.90;99.90
33139;DHT22;19501;50.948;5.316;2023-02-15T11:11:36;11.00;99.90
33139;DHT22;19501;50.948;5.316;2023-02-15T11:14:08;11.20;99.90
33139;DHT22;19501;50.948;5.316;2023-02-15T11:16:39;11.50;99.90
33139;DHT22;19501;50.948;5.316;2023-02-15T11:19:08;11.80;99.90
33139;DHT22;19501;50.948;5.316;2023-02-15T11:21:39;12.00;99.90
33139;DHT22;19501;50.948;5.316;2023-02-15T11:24:10;11.90;99.90
33139;DHT22;19501;50.948;5.316;2023-02-15T11:31:54;12.10;99.90
33139;DHT22;19501;50.948;5.316;2023-02-15T11:36:45;12.30;99.90
33139;DHT22;19501;50.948;5.316;2023-02-15T11:39:13;12.50;99.90
33139;DHT22;19501;50.948;5.316;2023-02-15T11:41:41;12.60;99.90
33139;DHT22;19501;50.948;5.316;2023-02-15T11:44:14;12.70;99.90
33139;DHT22;19501;50.948;5.316;2023-02-15T11:46:41;13.10;99.90
33139;DHT22;19501;50.948;5.316;2023-02-15T11:51:53;13.70;99.90
33139;DHT22;19501;50.948;5.316;2023-02-15T11:54:21;14.10;99.90
33139;DHT22;19501;50.948;5.316;2023-02-15T11:56:49;14.10;99.90
33139;DHT22;19501;50.948;5.316;2023-02-15T11:59:18;14.00;99.90
33139;DHT22;19501;50.948;5.316;2023-02-15T12:01:46;14.10;99.90
33139;DHT22;19501;50.948;5.316;2023-02-15T12:06:45;14.20;99.90
33139;DHT22;19501;50.948;5.316;2023-02-15T12:09:17;14.50;99.90
33139;DHT22;19501;50.948;5.316;2023-02-15T12:11:44;15.00;99.90
33139;DHT22;19501;50.948;5.316;2023-02-15T12:14:13;15.00;99.90
33139;DHT22;19501;50.948;5.316;2023-02-15T12:16:45;15.10;99.70
33139;DHT22;19501;50.948;5.316;2023-02-15T12:22:10;15.00;99.50
33139;DHT22;19501;50.948;5.316;2023-02-15T12:24:44;15.00;99.90
33139;DHT22;19501;50.948;5.316;2023-02-15T12:27:17;15.50;99.40
33139;DHT22;19501;50.948;5.316;2023-02-15T12:29:47;15.80;97.80
33139;DHT22;19501;50.948;5.316;2023-02-15T12:32:18;15.40;96.70
33139;DHT22;19501;50.948;5.316;2023-02-15T12:34:44;15.50;97.50
33139;DHT22;19501;50.948;5.316;2023-02-15T12:37:21;15.60;97.30
33139;DHT22;19501;50.948;5.316;2023-02-15T12:40:30;15.40;97.00
33139;DHT22;19501;50.948;5.316;2023-02-15T12:42:43;16.00;96.70
33139;DHT22;19501;50.948;5.316;2023-02-15T12:45:23;16.20;96.60
33139;DHT22;19501;50.948;5.316;2023-02-15T12:50:33;15.60;96.70
33139;DHT22;19501;50.948;5.316;2023-02-15T12:53:07;15.60;96.70
33139;DHT22;19501;50.948;5.316;2023-02-15T12:55:33;15.50;96.50
33139;DHT22;19501;50.948;5.316;2023-02-15T12:58:12;15.20;96.90
33139;DHT22;19501;50.948;5.316;2023-02-15T13:00:41;15.00;96.90
33139;DHT22;19501;50.948;5.316;2023-02-15T13:03:14;14.90;97.40
33139;DHT22;19501;50.948;5.316;2023-02-15T13:05:41;14.80;97.30
33139;DHT22;19501;50.948;5.316;2023-02-15T13:08:14;14.70;98.00
33139;DHT22;19501;50.948;5.316;2023-02-15T13:13:10;15.10;97.90
33139;DHT22;19501;50.948;5.316;2023-02-15T13:15:36;15.80;97.20
33139;DHT22;19501;50.948;5.316;2023-02-15T13:18:03;16.30;97.20
33139;DHT22;19501;50.948;5.316;2023-02-15T13:20:29;16.50;95.80
33139;DHT22;19501;50.948;5.316;2023-02-15T13:22:59;15.30;95.70
33139;DHT22;19501;50.948;5.316;2023-02-15T13:25:27;15.10;96.70
33139;DHT22;19501;50.948;5.316;2023-02-15T13:28:03;15.40;96.40
33139;DHT22;19501;50.948;5.316;2023-02-15T13:30:34;15.50;96.80
33139;DHT22;19501;50.948;5.316;2023-02-15T13:33:43;15.30;96.80
33139;DHT22;19501;50.948;5.316;2023-02-15T13:36:01;15.30;96.70
33139;DHT22;19501;50.948;5.316;2023-02-15T13:38:34;14.90;97.00
33139;DHT22;19501;50.948;5.316;2023-02-15T13:41:05;14.70;97.70
33139;DHT22;19501;50.948;5.316;2023-02-15T13:51:40;15.40;96.80
33139;DHT22;19501;50.948;5.316;2023-02-15T13:59:28;15.40;98.10
33139;DHT22;19501;50.948;5.316;2023-02-15T14:07:24;14.90;98.10
33139;DHT22;19501;50.948;5.316;2023-02-15T14:10:02;15.30;97.50
33139;DHT22;19501;50.948;5.316;2023-02-15T14:12:37;15.70;97.50
33139;DHT22;19501;50.948;5.316;2023-02-15T14:15:18;15.90;96.90
33139;DHT22;19501;50.948;5.316;2023-02-15T14:22:45;16.00;96.90
33139;DHT22;19501;50.948;5.316;2023-02-15T14:25:17;15.30;97.20
33139;DHT22;19501;50.948;5.316;2023-02-15T14:30:29;15.20;97.90
33139;DHT22;19501;50.948;5.316;2023-02-15T14:32:57;15.00;98.10
33139;DHT22;19501;50.948;5.316;2023-02-15T14:35:26;15.40;98.00
33139;DHT22;19501;50.948;5.316;2023-02-15T14:40:39;15.90;97.90
33139;DHT22;19501;50.948;5.316;2023-02-15T14:43:46;15.80;97.60
33139;DHT22;19501;50.948;5.316;2023-02-15T14:47:16;15.60;97.80
33139;DHT22;19501;50.948;5.316;2023-02-15T14:49:10;15.50;98.00
33139;DHT22;19501;50.948;5.316;2023-02-15T14:54:56;15.20;98.40
33139;DHT22;19501;50.948;5.316;2023-02-15T14:59:25;14.90;98.80
33139;DHT22;19501;50.948;5.316;2023-02-15T15:02:13;14.70;99.30
33139;DHT22;19501;50.948;5.316;2023-02-15T15:04:43;14.80;99.30
33139;DHT22;19501;50.948;5.316;2023-02-15T15:09:36;14.50;99.90
33139;DHT22;19501;50.948;5.316;2023-02-15T15:12:45;14.50;99.90
33139;DHT22;19501;50.948;5.316;2023-02-15T15:14:54;14.50;99.90
33139;DHT22;19501;50.948;5.316;2023-02-15T15:22:29;14.80;99.90
33139;DHT22;19501;50.948;5.316;2023-02-15T15:25:02;14.60;99.90
33139;DHT22;19501;50.948;5.316;2023-02-15T15:38:05;14.10;99.90
33139;DHT22;19501;50.948;5.316;2023-02-15T15:40:48;14.20;99.90
33139;DHT22;19501;50.948;5.316;2023-02-15T15:48:43;14.20;99.90
33139;DHT22;19501;50.948;5.316;2023-02-15T15:51:18;14.30;99.90
33139;DHT22;19501;50.948;5.316;2023-02-15T15:53:47;14.30;99.90
33139;DHT22;19501;50.948;5.316;2023-02-15T15:56:17;14.20;99.90
33139;DHT22;19501;50.948;5.316;2023-02-15T15:58:46;14.20;99.90
33139;DHT22;19501;50.948;5.316;2023-02-15T16:01:13;14.10;99.90
33139;DHT22;19501;50.948;5.316;2023-02-15T16:03:50;14.20;99.90
33139;DHT22;19501;50.948;5.316;2023-02-15T16:06:36;14.00;99.90
33139;DHT22;19501;50.948;5.316;2023-02-15T16:11:36;13.90;99.90
33139;DHT22;19501;50.948;5.316;2023-02-15T16:14:11;13.80;99.90
33139;DHT22;19501;50.948;5.316;2023-02-15T16:16:37;13.80;99.90
33139;DHT22;19501;50.948;5.316;2023-02-15T16:19:03;13.60;99.90
33139;DHT22;19501;50.948;5.316;2023-02-15T16:21:29;13.70;99.90
33139;DHT22;19501;50.948;5.316;2023-02-15T16:28:57;13.40;99.90
33139;DHT22;19501;50.948;5.316;2023-02-15T16:31:23;13.30;99.90
33139;DHT22;19501;50.948;5.316;2023-02-15T16:33:51;13.20;99.90
33139;DHT22;19501;50.948;5.316;2023-02-15T16:36:22;13.10;99.90
33139;DHT22;19501;50.948;5.316;2023-02-15T16:41:32;12.90;99.90
33139;DHT22;19501;50.948;5.316;2023-02-15T16:44:04;12.70;99.90
33139;DHT22;19501;50.948;5.316;2023-02-15T16:46:31;12.70;99.90
33139;DHT22;19501;50.948;5.316;2023-02-15T16:49:02;12.60;99.90
33139;DHT22;19501;50.948;5.316;2023-02-15T16:51:30;12.40;99.90
33139;DHT22;19501;50.948;5.316;2023-02-15T16:53:56;12.30;99.90
33139;DHT22;19501;50.948;5.316;2023-02-15T16:56:26;12.10;99.90
33139;DHT22;19501;50.948;5.316;2023-02-15T16:58:53;12.00;99.90
33139;DHT22;19501;50.948;5.316;2023-02-15T17:01:20;12.00;99.90
33139;DHT22;19501;50.948;5.316;2023-02-15T17:03:47;12.00;99.90
33139;DHT22;19501;50.948;5.316;2023-02-15T17:06:23;11.60;99.90
33139;DHT22;19501;50.948;5.316;2023-02-15T17:08:51;11.50;99.90
33139;DHT22;19501;50.948;5.316;2023-02-15T17:11:20;11.50;99.90
33139;DHT22;19501;50.948;5.316;2023-02-15T17:16:35;11.20;99.90
33139;DHT22;19501;50.948;5.316;2023-02-15T17:19:01;11.30;99.90
33139;DHT22;19501;50.948;5.316;2023-02-15T17:21:30;11.20;99.90
33139;DHT22;19501;50.948;5.316;2023-02-15T17:23:57;11.10;99.90
33139;DHT22;19501;50.948;5.316;2023-02-15T17:26:35;10.90;99.90
33139;DHT22;19501;50.948;5.316;2023-02-15T17:31:29;10.70;99.90
33139;DHT22;19501;50.948;5.316;2023-02-15T17:33:56;10.60;99.90
33139;DHT22;19501;50.948;5.316;2023-02-15T17:36:24;10.60;99.90
33139;DHT22;19501;50.948;5.316;2023-02-15T17:41:22;10.20;99.90
33139;DHT22;19501;50.948;5.316;2023-02-15T17:43:50;10.10;99.90
33139;DHT22;19501;50.948;5.316;2023-02-15T17:46:15;10.00;99.90
33139;DHT22;19501;50.948;5.316;2023-02-15T17:48:45;9.90;99.90
33139;DHT22;19501;50.948;5.316;2023-02-15T17:51:12;9.90;99.90
33139;DHT22;19501;50.948;5.316;2023-02-15T17:53:38;9.80;99.90
33139;DHT22;19501;50.948;5.316;2023-02-15T17:56:03;9.70;99.90
33139;DHT22;19501;50.948;5.316;2023-02-15T17:58:34;9.60;99.90
33139;DHT22;19501;50.948;5.316;2023-02-15T18:01:00;9.60;99.90
33139;DHT22;19501;50.948;5.316;2023-02-15T18:03:48;9.50;99.90
33139;DHT22;19501;50.948;5.316;2023-02-15T18:06:33;9.40;99.90
33139;DHT22;19501;50.948;5.316;2023-02-15T18:09:19;9.50;99.90
33139;DHT22;19501;50.948;5.316;2023-02-15T18:12:23;9.40;99.90
33139;DHT22;19501;50.948;5.316;2023-02-15T18:14:49;9.50;99.90
33139;DHT22;19501;50.948;5.316;2023-02-15T18:17:15;9.40;99.90
33139;DHT22;19501;50.948;5.316;2023-02-15T18:19:41;9.20;99.90
33139;DHT22;19501;50.948;5.316;2023-02-15T18:22:11;9.00;99.90
33139;DHT22;19501;50.948;5.316;2023-02-15T18:24:40;9.30;99.90
33139;DHT22;19501;50.948;5.316;2023-02-15T18:27:05;9.40;99.90
33139;DHT22;19501;50.948;5.316;2023-02-15T18:29:31;9.60;99.90
33139;DHT22;19501;50.948;5.316;2023-02-15T18:31:57;9.80;99.90
33139;DHT22;19501;50.948;5.316;2023-02-15T18:36:49;9.70;99.90
33139;DHT22;19501;50.948;5.316;2023-02-15T18:39:22;9.60;99.90
33139;DHT22;19501;50.948;5.316;2023-02-15T18:41:48;9.70;99.90
33139;DHT22;19501;50.948;5.316;2023-02-15T18:44:14;9.80;99.90
33139;DHT22;19501;50.948;5.316;2023-02-15T18:46:39;9.80;99.90
33139;DHT22;19501;50.948;5.316;2023-02-15T18:49:05;9.70;99.90
33139;DHT22;19501;50.948;5.316;2023-02-15T18:51:30;9.70;99.90
33139;DHT22;19501;50.948;5.316;2023-02-15T18:53:57;9.80;99.90